Time;durP1;ratioP1;P1;durP2;ratioP2;P2;SDS_P1;SDS_P2;PMS_P1;PMS_P2;Temp;Humidity;BMP_temperature;BMP_pressure;BME280_temperature;BME280_humidity;BME280_pressure;Samples;Min_cycle;Max_cycle;Signal;HPM_P1;HPM_P2
2023/09/01 00:01:30;;;;;;;13.23;5.70;;;;;;;14.30;100.00;101033.63;5067892;28;20056;-63
2023/09/01 00:03:59;;;;;;;12.77;5.15;;;;;;;14.29;100.00;101036.34;5069029;28;20128;-63
2023/09/01 00:06:29;;;;;;;13.77;5.60;;;;;;;14.28;100.00;101034.69;5069859;28;20067;-63
2023/09/01 00:08:57;;;;;;;14.95;5.43;;;;;;;14.30;100.00;101023.03;5067140;28;20526;-63
2023/09/01 00:11:25;;;;;;;12.07;5.25;;;;;;;14.29;100.00;101017.84;5067914;28;20048;-63
2023/09/01 00:13:53;;;;;;;13.48;5.05;;;;;;;14.22;100.00;101012.22;5068040;28;20047;-63
2023/09/01 00:16:21;;;;;;;11.85;5.63;;;;;;;14.13;100.00;101012.94;5068749;28;20063;-62
2023/09/01 00:18:50;;;;;;;10.13;5.55;;;;;;;14.04;100.00;101019.75;5071723;28;20033;-63
2023/09/01 00:21:18;;;;;;;11.23;5.50;;;;;;;14.00;100.00;101019.16;5070413;28;20090;-62
2023/09/01 00:23:47;;;;;;;13.30;5.85;;;;;;;14.05;100.00;101025.91;5071700;28;20059;-63
2023/09/01 00:26:16;;;;;;;11.77;6.55;;;;;;;14.00;100.00;101019.16;5071968;28;20052;-62
2023/09/01 00:28:44;;;;;;;15.25;7.03;;;;;;;13.94;100.00;101014.34;5067645;28;20043;-62
2023/09/01 00:31:12;;;;;;;15.00;6.38;;;;;;;13.93;100.00;101012.63;5067858;28;20072;-63
2023/09/01 00:33:40;;;;;;;13.70;6.38;;;;;;;13.94;100.00;101014.34;5067801;28;20052;-64
2023/09/01 00:36:08;;;;;;;13.15;6.03;;;;;;;14.00;100.00;101016.53;5067900;28;20046;-63
2023/09/01 00:38:36;;;;;;;12.93;6.10;;;;;;;14.09;100.00;101012.31;5065883;28;20511;-63
2023/09/01 00:41:09;;;;;;;12.27;6.07;;;;;;;14.15;100.00;101018.91;5068319;28;20040;-63
2023/09/01 00:43:37;;;;;;;13.65;6.50;;;;;;;14.09;100.00;101006.19;5071252;28;20048;-63
2023/09/01 00:46:05;;;;;;;15.05;6.90;;;;;;;14.06;100.00;101011.69;5069626;28;20044;-63
2023/09/01 00:48:34;;;;;;;15.73;7.20;;;;;;;14.05;100.00;100997.66;5067841;28;20495;-63
2023/09/01 00:51:02;;;;;;;11.75;6.60;;;;;;;14.09;100.00;101001.72;5070593;28;20064;-54
2023/09/01 00:53:33;;;;;;;12.63;6.53;;;;;;;14.11;100.00;100999.81;5071708;28;20438;-55
2023/09/01 00:56:03;;;;;;;10.00;6.40;;;;;;;14.08;100.00;101009.78;5071146;28;20075;-55
2023/09/01 00:58:33;;;;;;;12.73;6.75;;;;;;;14.03;100.00;101002.22;5068444;28;20131;-56
2023/09/01 01:01:04;;;;;;;12.80;6.35;;;;;;;14.07;100.00;100997.53;5068721;28;20060;-56
2023/09/01 01:03:34;;;;;;;12.55;6.60;;;;;;;14.05;100.00;100996.81;5068245;28;20125;-57
2023/09/01 01:06:14;;;;;;;11.13;6.50;;;;;;;14.03;100.00;101004.88;5068811;28;20056;-56
2023/09/01 01:08:54;;;;;;;13.13;6.82;;;;;;;14.02;100.00;101006.66;5067092;28;20041;-56
2023/09/01 01:11:28;;;;;;;11.70;6.57;;;;;;;13.96;100.00;101007.13;5068419;28;20044;-56
2023/09/01 01:14:01;;;;;;;13.55;6.60;;;;;;;14.00;100.00;101011.22;5070931;28;20458;-56
2023/09/01 01:16:31;;;;;;;14.65;7.00;;;;;;;14.00;100.00;101011.22;5071754;28;20115;-57
2023/09/01 01:19:05;;;;;;;12.30;6.38;;;;;;;13.98;100.00;101010.50;5070570;28;20422;-56
2023/09/01 01:21:38;;;;;;;13.30;6.45;;;;;;;13.86;100.00;101001.72;5067573;28;20133;-56
2023/09/01 01:24:08;;;;;;;16.05;7.18;;;;;;;13.88;100.00;101004.25;5073790;28;20044;-56
2023/09/01 01:26:37;;;;;;;11.98;6.68;;;;;;;13.89;100.00;101007.72;5072648;28;20080;-56
2023/09/01 01:29:07;;;;;;;10.95;6.53;;;;;;;13.92;100.00;101004.84;5072893;28;20041;-56
2023/09/01 01:31:35;;;;;;;13.52;6.88;;;;;;;13.89;100.00;100999.78;5073372;28;20551;-56
2023/09/01 01:34:11;;;;;;;14.20;6.38;;;;;;;13.96;100.00;101004.50;5075660;28;20075;-56
2023/09/01 01:36:49;;;;;;;12.85;6.80;;;;;;;13.90;100.00;101006.75;5075622;28;20044;-56
2023/09/01 01:39:25;;;;;;;13.77;7.00;;;;;;;13.79;100.00;101015.50;5072404;28;20051;-56
2023/09/01 01:41:56;;;;;;;13.43;6.35;;;;;;;13.81;100.00;101013.59;5072139;28;20052;-55
2023/09/01 01:44:30;;;;;;;11.15;6.00;;;;;;;13.84;100.00;101013.38;5071700;28;20049;-57
2023/09/01 01:46:59;;;;;;;11.93;6.00;;;;;;;13.74;100.00;101018.50;5071768;28;20049;-57
2023/09/01 01:49:28;;;;;;;14.82;7.15;;;;;;;13.77;100.00;101025.34;5071934;28;20043;-56
2023/09/01 01:51:59;;;;;;;12.50;6.23;;;;;;;13.75;100.00;101030.75;5074573;28;20041;-57
2023/09/01 01:54:30;;;;;;;9.85;6.40;;;;;;;13.64;100.00;101031.56;5075188;28;20560;-56
2023/09/01 01:57:01;;;;;;;14.13;6.38;;;;;;;13.56;100.00;101026.00;5073658;28;20396;-56
2023/09/01 01:59:29;;;;;;;13.45;6.75;;;;;;;13.56;100.00;101033.09;5071788;28;20651;-56
2023/09/01 02:01:58;;;;;;;12.65;6.30;;;;;;;13.59;100.00;101032.88;5071666;28;20048;-56
2023/09/01 02:04:29;;;;;;;11.43;6.77;;;;;;;13.54;100.00;101033.22;5075121;28;20054;-56
2023/09/01 02:06:57;;;;;;;15.95;6.32;;;;;;;13.46;100.00;101031.13;5075235;28;20051;-56
2023/09/01 02:09:30;;;;;;;13.18;6.30;;;;;;;13.47;100.00;101024.91;5073267;28;20044;-55
2023/09/01 02:11:58;;;;;;;10.35;5.65;;;;;;;13.43;100.00;101022.59;5071324;28;20044;-57
2023/09/01 02:14:26;;;;;;;12.05;6.28;;;;;;;13.46;100.00;101028.50;5072678;28;20147;-56
2023/09/01 02:16:54;;;;;;;11.32;6.93;;;;;;;13.40;100.00;101026.31;5071948;28;20080;-56
2023/09/01 02:19:27;;;;;;;12.82;7.20;;;;;;;13.38;100.00;101019.47;5072418;28;20051;-57
2023/09/01 02:21:56;;;;;;;12.98;6.15;;;;;;;13.29;100.00;101016.53;5075218;28;20049;-57
2023/09/01 02:24:24;;;;;;;13.38;6.70;;;;;;;13.28;100.00;101019.25;5072827;28;20055;-57
2023/09/01 02:26:54;;;;;;;11.93;7.15;;;;;;;13.31;100.00;101021.69;5070476;28;20095;-57
2023/09/01 02:29:22;;;;;;;14.38;7.28;;;;;;;13.27;100.00;101022.88;5069332;28;20056;-55
2023/09/01 02:31:53;;;;;;;11.82;6.57;;;;;;;13.18;100.00;101032.28;5071145;28;20044;-56
2023/09/01 02:34:21;;;;;;;13.98;7.07;;;;;;;13.06;100.00;101034.06;5070231;28;20057;-56
2023/09/01 02:36:49;;;;;;;11.55;6.90;;;;;;;13.08;100.00;101039.22;5072963;28;20086;-57
2023/09/01 02:39:17;;;;;;;11.65;6.00;;;;;;;12.98;100.00;101039.88;5074251;28;20051;-56
2023/09/01 02:41:46;;;;;;;12.38;6.60;;;;;;;13.00;100.00;101040.59;5074225;28;20044;-56
2023/09/01 02:44:15;;;;;;;13.30;6.78;;;;;;;13.08;100.00;101044.50;5071227;28;20495;-56
2023/09/01 02:46:43;;;;;;;12.95;6.60;;;;;;;13.07;100.00;101040.16;5070873;28;20507;-56
2023/09/01 02:49:12;;;;;;;11.45;6.30;;;;;;;13.06;100.00;101033.19;5071467;28;20184;-56
2023/09/01 02:51:40;;;;;;;17.30;6.70;;;;;;;13.01;100.00;101033.53;5069674;28;20048;-57
2023/09/01 02:54:08;;;;;;;14.00;6.30;;;;;;;12.96;100.00;101035.66;5071299;28;20052;-55
2023/09/01 02:56:36;;;;;;;13.07;6.10;;;;;;;12.92;100.00;101035.03;5070672;28;20048;-56
2023/09/01 02:59:06;;;;;;;10.52;6.28;;;;;;;12.99;100.00;101031.00;5071964;28;20045;-55
2023/09/01 03:01:38;;;;;;;17.38;7.05;;;;;;;12.95;100.00;101040.13;5072084;28;20223;-56
2023/09/01 03:04:07;;;;;;;12.25;6.15;;;;;;;12.93;100.00;101034.09;5070629;28;20513;-56
2023/09/01 03:06:35;;;;;;;11.63;6.88;;;;;;;12.84;100.00;101034.75;5068863;28;20504;-55
2023/09/01 03:09:04;;;;;;;11.07;6.93;;;;;;;12.88;100.00;101030.09;5073611;28;20051;-56
2023/09/01 03:11:35;;;;;;;14.05;7.15;;;;;;;12.90;100.00;101031.66;5069893;28;20101;-55
2023/09/01 03:14:05;;;;;;;15.55;6.68;;;;;;;12.84;100.00;101019.75;5071849;28;20057;-56
2023/09/01 03:16:34;;;;;;;11.30;6.25;;;;;;;12.84;100.00;101027.69;5073939;28;20052;-56
2023/09/01 03:19:06;;;;;;;15.98;7.07;;;;;;;12.79;100.00;101018.41;5073672;28;20125;-56
2023/09/01 03:21:34;;;;;;;12.65;6.63;;;;;;;12.87;100.00;101015.19;5073493;28;20582;-56
2023/09/01 03:24:02;;;;;;;13.82;7.18;;;;;;;12.80;100.00;101017.44;5073470;28;20459;-56
2023/09/01 03:26:30;;;;;;;11.82;6.35;;;;;;;12.83;100.00;101023.34;5073671;28;20113;-56
2023/09/01 03:28:58;;;;;;;14.35;6.82;;;;;;;12.79;100.00;101021.88;5073247;28;20418;-55
2023/09/01 03:31:30;;;;;;;15.40;7.32;;;;;;;12.76;100.00;101018.63;5073240;28;20049;-56
2023/09/01 03:33:59;;;;;;;15.50;7.68;;;;;;;12.75;100.00;101015.16;5069766;28;20065;-62
2023/09/01 03:36:29;;;;;;;12.95;6.80;;;;;;;12.78;100.00;101016.72;5068942;28;20067;-62
2023/09/01 03:38:59;;;;;;;13.73;8.30;;;;;;;12.79;100.00;101005.22;5072429;28;20049;-63
2023/09/01 03:41:27;;;;;;;13.40;8.05;;;;;;;12.78;100.00;101003.53;5072552;28;20484;-63
2023/09/01 03:43:56;;;;;;;16.83;7.68;;;;;;;12.72;100.00;101006.59;5072301;28;20044;-63
2023/09/01 03:46:24;;;;;;;15.43;7.82;;;;;;;12.74;100.00;101008.16;5068275;28;20693;-63
2023/09/01 03:48:52;;;;;;;12.20;8.20;;;;;;;12.76;100.00;101002.78;5068605;28;20044;-62
2023/09/01 03:51:21;;;;;;;14.38;8.13;;;;;;;12.81;100.00;101000.66;5068300;28;20475;-62
2023/09/01 03:53:51;;;;;;;13.32;8.10;;;;;;;12.80;100.00;100993.69;5067885;28;20490;-62
2023/09/01 03:56:22;;;;;;;16.65;8.80;;;;;;;12.75;100.00;100990.53;5068969;28;20055;-64
2023/09/01 03:58:51;;;;;;;15.15;8.57;;;;;;;12.78;100.00;100993.81;5067144;28;20492;-63
2023/09/01 04:01:19;;;;;;;17.77;8.48;;;;;;;12.75;100.00;100993.16;5070964;28;20051;-62
2023/09/01 04:03:49;;;;;;;14.35;8.45;;;;;;;12.80;100.00;100980.50;5067860;28;20058;-62
2023/09/01 04:06:17;;;;;;;14.27;8.60;;;;;;;12.75;100.00;100972.91;5068071;28;20052;-62
2023/09/01 04:08:45;;;;;;;17.83;9.45;;;;;;;12.77;100.00;100978.09;5065221;28;20550;-62
2023/09/01 04:11:15;;;;;;;16.13;8.75;;;;;;;12.76;100.00;100979.03;5068065;28;20060;-61
2023/09/01 04:13:44;;;;;;;14.68;9.25;;;;;;;12.80;100.00;100986.63;5068011;28;20115;-61
2023/09/01 04:16:12;;;;;;;15.15;9.63;;;;;;;12.83;100.00;100981.13;5071805;28;20049;-62
2023/09/01 04:18:40;;;;;;;15.45;10.40;;;;;;;12.81;100.00;100982.19;5071754;28;20464;-62
2023/09/01 04:21:08;;;;;;;16.38;9.48;;;;;;;12.86;100.00;100980.06;5068195;28;20045;-62
2023/09/01 04:23:39;;;;;;;15.02;9.32;;;;;;;12.85;100.00;100981.00;5066099;28;20054;-62
2023/09/01 04:26:08;;;;;;;19.45;9.98;;;;;;;12.90;100.00;100978.88;5068089;28;20044;-62
2023/09/01 04:28:38;;;;;;;22.95;10.00;;;;;;;12.94;100.00;100966.28;5067589;28;20057;-62
2023/09/01 04:31:15;;;;;;;15.25;9.27;;;;;;;12.94;100.00;100966.28;5068352;28;20652;-62
2023/09/01 04:33:43;;;;;;;13.65;9.20;;;;;;;13.02;100.00;100974.50;5067162;28;20438;-62
2023/09/01 04:36:11;;;;;;;15.32;9.68;;;;;;;12.98;100.00;100979.16;5067678;28;20048;-63
2023/09/01 04:38:41;;;;;;;19.70;9.40;;;;;;;12.98;100.00;100976.53;5066004;28;20135;-62
2023/09/01 04:41:09;;;;;;;17.02;10.00;;;;;;;12.91;100.00;100991.13;5067598;28;20040;-63
2023/09/01 04:43:39;;;;;;;16.08;9.52;;;;;;;12.91;100.00;100987.63;5065871;28;20060;-62
2023/09/01 04:46:07;;;;;;;15.65;10.00;;;;;;;12.91;100.00;100987.63;5069918;28;20076;-62
2023/09/01 04:48:35;;;;;;;14.52;8.73;;;;;;;12.94;100.00;100990.91;5071435;28;20044;-62
2023/09/01 04:51:04;;;;;;;15.15;9.15;;;;;;;12.97;100.00;100977.47;5067629;28;20048;-61
2023/09/01 04:53:32;;;;;;;15.15;9.60;;;;;;;13.02;100.00;100974.50;5065767;28;20117;-62
2023/09/01 04:56:00;;;;;;;18.00;9.57;;;;;;;13.04;100.00;100980.50;5067770;28;20399;-62
2023/09/01 04:58:28;;;;;;;14.57;9.07;;;;;;;13.05;100.00;100978.69;5067155;28;20048;-61
2023/09/01 05:01:00;;;;;;;15.25;9.45;;;;;;;13.05;100.00;100983.97;5067761;28;20080;-61
2023/09/01 05:03:28;;;;;;;20.70;10.77;;;;;;;13.11;100.00;100984.38;5067717;28;20131;-62
2023/09/01 05:05:58;;;;;;;16.35;10.00;;;;;;;13.08;100.00;100979.31;5067221;28;20131;-62
2023/09/01 05:08:26;;;;;;;15.07;9.32;;;;;;;13.10;100.00;100989.78;5067218;28;20048;-62
2023/09/01 05:10:54;;;;;;;14.20;9.43;;;;;;;13.10;100.00;100997.69;5070869;28;20044;-62
2023/09/01 05:13:22;;;;;;;17.73;10.45;;;;;;;13.18;100.00;101003.25;5068605;28;20047;-62
2023/09/01 05:15:50;;;;;;;15.32;9.48;;;;;;;13.23;100.00;100998.47;5067337;28;20044;-62
2023/09/01 05:18:20;;;;;;;15.40;9.45;;;;;;;13.26;100.00;100998.25;5067270;28;20072;-62
2023/09/01 05:20:50;;;;;;;16.25;8.95;;;;;;;13.28;100.00;100996.34;5068362;28;20048;-55
2023/09/01 05:23:19;;;;;;;17.17;9.57;;;;;;;13.28;100.00;100998.13;5070492;28;20652;-56
2023/09/01 05:25:52;;;;;;;19.52;9.88;;;;;;;13.26;100.00;101000.88;5068776;28;20072;-56
2023/09/01 05:28:20;;;;;;;16.17;9.82;;;;;;;13.27;100.00;100997.28;5071060;28;20518;-58
2023/09/01 05:30:49;;;;;;;15.88;9.35;;;;;;;13.32;100.00;100997.81;5071339;28;20053;-56
2023/09/01 05:33:17;;;;;;;18.77;8.82;;;;;;;13.36;100.00;101003.72;5071727;28;20391;-56
2023/09/01 05:35:49;;;;;;;14.15;9.00;;;;;;;13.45;100.00;101007.47;5069932;28;20040;-56
2023/09/01 05:38:17;;;;;;;13.88;9.07;;;;;;;13.46;100.00;101009.19;5067717;28;20056;-56
2023/09/01 05:40:45;;;;;;;16.48;9.05;;;;;;;13.49;100.00;101003.66;5070951;28;20052;-56
2023/09/01 05:43:17;;;;;;;14.65;8.40;;;;;;;13.55;100.00;100995.25;5071262;28;20052;-56
2023/09/01 05:45:45;;;;;;;17.00;9.13;;;;;;;13.61;100.00;101002.72;5068256;28;20072;-56
2023/09/01 05:48:14;;;;;;;14.73;9.02;;;;;;;13.62;100.00;100999.13;5069809;28;20049;-56
2023/09/01 05:50:43;;;;;;;14.35;8.27;;;;;;;13.66;100.00;100995.31;5069294;28;20047;-55
2023/09/01 05:53:13;;;;;;;14.93;9.07;;;;;;;13.67;100.00;100998.78;5067636;28;20131;-57
2023/09/01 05:55:41;;;;;;;13.23;8.50;;;;;;;13.71;100.00;100999.41;5066500;28;20499;-57
2023/09/01 05:58:09;;;;;;;13.73;8.77;;;;;;;13.73;100.00;101006.25;5068683;28;20075;-57
2023/09/01 06:00:37;;;;;;;14.35;8.90;;;;;;;13.72;100.00;101009.03;5068150;28;20040;-57
2023/09/01 06:03:06;;;;;;;17.65;8.68;;;;;;;13.71;100.00;101002.88;5068024;28;20045;-57
2023/09/01 06:05:34;;;;;;;15.65;8.05;;;;;;;13.74;100.00;101005.28;5068205;28;20051;-57
2023/09/01 06:08:03;;;;;;;14.25;8.18;;;;;;;13.79;100.00;101010.22;5070946;28;20055;-56
2023/09/01 06:10:32;;;;;;;16.95;9.00;;;;;;;13.88;100.00;101016.59;5074924;28;20535;-57
2023/09/01 06:13:01;;;;;;;15.93;8.50;;;;;;;13.91;100.00;101008.47;5074884;28;20415;-57
2023/09/01 06:15:29;;;;;;;14.05;8.93;;;;;;;13.98;100.00;101014.94;5072824;28;20071;-57
2023/09/01 06:17:57;;;;;;;15.45;8.90;;;;;;;13.92;100.00;101007.47;5071103;28;20052;-57
2023/09/01 06:20:25;;;;;;;15.93;9.15;;;;;;;13.98;100.00;101004.38;5071545;28;20049;-57
2023/09/01 06:22:55;;;;;;;17.42;9.65;;;;;;;14.03;100.00;101013.63;5069723;28;20055;-57
2023/09/01 06:25:24;;;;;;;16.77;8.90;;;;;;;14.07;100.00;101002.81;5071454;28;20057;-57
2023/09/01 06:27:53;;;;;;;15.63;8.85;;;;;;;14.20;100.00;101003.53;5072839;28;20086;-57
2023/09/01 06:30:23;;;;;;;14.43;8.85;;;;;;;14.28;100.00;101005.59;5074601;28;20123;-57
2023/09/01 06:32:51;;;;;;;16.23;9.43;;;;;;;14.36;100.00;101006.66;5071737;28;20055;-58
2023/09/01 06:35:19;;;;;;;16.80;8.57;;;;;;;14.46;100.00;101004.13;5072125;28;20131;-58
2023/09/01 06:37:48;;;;;;;16.45;9.75;;;;;;;14.42;100.00;101021.22;5073451;28;20564;-58
2023/09/01 06:40:16;;;;;;;16.40;8.43;;;;;;;14.49;100.00;101008.34;5070424;28;20045;-57
2023/09/01 06:42:44;;;;;;;16.23;8.73;;;;;;;14.56;100.00;101011.34;5069957;28;20457;-57
2023/09/01 06:45:13;;;;;;;16.33;9.32;;;;;;;14.60;100.00;101011.00;5071093;28;20537;-57
2023/09/01 06:47:42;;;;;;;14.60;8.73;;;;;;;14.72;100.00;101011.00;5072754;28;20044;-57
2023/09/01 06:50:10;;;;;;;16.35;9.05;;;;;;;14.74;100.00;101011.72;5070841;28;20072;-57
2023/09/01 06:52:38;;;;;;;14.77;8.73;;;;;;;14.77;100.00;101006.19;5070596;28;20491;-57
2023/09/01 06:55:07;;;;;;;18.30;9.25;;;;;;;14.90;100.00;101012.16;5072615;28;20377;-57
2023/09/01 06:57:35;;;;;;;12.68;8.38;;;;;;;14.93;100.00;101014.59;5071887;28;20381;-57
2023/09/01 07:00:04;;;;;;;15.73;8.30;;;;;;;15.01;100.00;101013.94;5071168;28;20048;-58
2023/09/01 07:02:33;;;;;;;14.48;8.18;;;;;;;15.09;100.00;101011.50;5073309;28;20044;-57
2023/09/01 07:05:02;;;;;;;13.15;7.72;;;;;;;15.17;100.00;101017.03;5071538;28;20053;-57
2023/09/01 07:07:30;;;;;;;15.27;8.15;;;;;;;15.26;100.00;101023.38;5072243;28;20183;-57
2023/09/01 07:09:58;;;;;;;13.65;8.05;;;;;;;15.37;100.00;101018.03;5071421;28;20048;-57
2023/09/01 07:12:27;;;;;;;13.35;8.15;;;;;;;15.48;100.00;101018.97;5070070;28;20044;-57
2023/09/01 07:14:55;;;;;;;11.25;7.63;;;;;;;15.53;100.00;101014.13;5070783;28;20048;-58
2023/09/01 07:17:23;;;;;;;15.20;8.55;;;;;;;15.65;100.00;101017.53;5070122;28;20040;-56
2023/09/01 07:19:53;;;;;;;11.90;7.75;;;;;;;15.74;100.00;101018.59;5069980;28;20044;-57
2023/09/01 07:22:21;;;;;;;15.05;8.38;;;;;;;15.83;100.00;101017.84;5070507;28;20470;-58
2023/09/01 07:24:50;;;;;;;13.85;8.10;;;;;;;15.93;100.00;101021.38;5070973;28;20052;-56
2023/09/01 07:27:21;;;;;;;14.45;7.30;;;;;;;15.96;100.00;101018.47;5070314;28;20772;-56
2023/09/01 07:29:49;;;;;;;16.27;8.43;;;;;;;16.05;100.00;101017.69;5070270;28;20091;-57
2023/09/01 07:32:18;;;;;;;13.10;7.72;;;;;;;16.13;100.00;101014.38;5071264;28;20373;-57
2023/09/01 07:34:48;;;;;;;14.20;7.85;;;;;;;16.20;100.00;101020.00;5073579;28;20106;-57
2023/09/01 07:37:19;;;;;;;13.63;7.40;;;;;;;16.23;100.00;101025.03;5069588;28;20067;-57
2023/09/01 07:39:47;;;;;;;13.02;6.88;;;;;;;16.34;100.00;101013.50;5069968;28;20132;-57
2023/09/01 07:42:15;;;;;;;14.27;6.82;;;;;;;16.39;100.00;101016.59;5069773;28;20040;-57
2023/09/01 07:44:46;;;;;;;14.82;6.82;;;;;;;16.48;100.00;101014.94;5069843;28;20056;-57
2023/09/01 07:47:14;;;;;;;12.98;6.80;;;;;;;16.55;100.00;101019.59;5069723;28;20532;-57
2023/09/01 07:49:42;;;;;;;14.05;6.97;;;;;;;16.66;100.00;101026.59;5071724;28;20561;-58
2023/09/01 07:52:11;;;;;;;11.00;6.03;;;;;;;16.76;100.00;101018.66;5072720;28;20044;-57
2023/09/01 07:54:42;;;;;;;12.68;5.90;;;;;;;16.75;100.00;101019.63;5069553;28;20056;-57
2023/09/01 07:57:10;;;;;;;13.60;6.45;;;;;;;16.80;100.00;101021.91;5069996;28;20048;-57
2023/09/01 07:59:39;;;;;;;12.77;6.07;;;;;;;16.85;100.00;101012.53;5071370;28;20049;-57
2023/09/01 08:02:08;;;;;;;11.38;6.20;;;;;;;16.90;100.00;101012.16;5072520;28;20040;-56
2023/09/01 08:04:38;;;;;;;11.27;6.18;;;;;;;16.83;100.00;101019.78;5069769;28;20604;-57
2023/09/01 08:07:07;;;;;;;14.70;6.65;;;;;;;16.94;100.00;101012.72;5068381;28;20044;-57
2023/09/01 08:09:35;;;;;;;12.32;5.75;;;;;;;17.10;100.00;101014.81;5069948;28;20056;-56
2023/09/01 08:12:05;;;;;;;11.27;5.72;;;;;;;17.15;100.00;101000.16;5069396;28;20134;-56
2023/09/01 08:14:33;;;;;;;12.90;5.88;;;;;;;17.20;100.00;101011.19;5069597;28;20052;-57
2023/09/01 08:17:04;;;;;;;13.35;5.70;;;;;;;17.28;100.00;101009.69;5069207;28;20486;-57
2023/09/01 08:19:32;;;;;;;10.07;5.43;;;;;;;17.39;100.00;101004.22;5069420;28;20495;-57
2023/09/01 08:22:01;;;;;;;10.40;5.55;;;;;;;17.42;100.00;101005.75;5070411;28;20041;-58
2023/09/01 08:24:31;;;;;;;10.18;6.03;;;;;;;17.51;100.00;101013.72;5072472;28;20044;-57
2023/09/01 08:26:59;;;;;;;11.07;5.72;;;;;;;17.60;100.00;101012.03;5069725;28;20048;-58
2023/09/01 08:29:31;;;;;;;11.00;5.40;;;;;;;17.68;100.00;101014.84;5068320;28;20513;-57
2023/09/01 08:32:01;;;;;;;11.68;5.72;;;;;;;17.68;100.00;101016.63;5067625;28;20115;-57
2023/09/01 08:34:29;;;;;;;11.57;5.60;;;;;;;17.76;100.00;101021.25;5069106;28;20878;-57
2023/09/01 08:36:57;;;;;;;10.48;6.25;;;;;;;17.81;100.00;101019.00;5067937;28;20052;-57
2023/09/01 08:39:25;;;;;;;12.77;6.32;;;;;;;17.76;100.00;101023.91;5067868;28;20140;-64
2023/09/01 08:41:53;;;;;;;10.82;5.60;;;;;;;17.98;100.00;101023.59;5067046;28;20048;-64
2023/09/01 08:44:23;;;;;;;9.90;6.25;;;;;;;17.97;100.00;101040.56;5065832;28;20060;-64
2023/09/01 08:46:55;;;;;;;11.75;6.38;;;;;;;18.02;100.00;101043.59;5067027;28;20052;-64
2023/09/01 08:49:25;;;;;;;12.05;6.18;;;;;;;18.03;100.00;101037.31;5065777;28;20110;-64
2023/09/01 08:51:55;;;;;;;9.48;5.68;;;;;;;17.90;100.00;101037.59;5069289;28;20063;-64
2023/09/01 08:54:26;;;;;;;;;;;;;;;17.89;100.00;101037.75;5072052;28;20487;-64
2023/09/01 08:56:55;;;;;;;10.88;6.30;;;;;;;18.01;100.00;101044.63;5071137;28;19970;-64
2023/09/01 08:59:28;;;;;;;13.35;6.05;;;;;;;18.01;100.00;101041.09;5071338;28;20044;-65
2023/09/01 09:01:57;;;;;;;12.25;5.65;;;;;;;18.03;100.00;101052.44;5068940;28;20524;-65
2023/09/01 09:04:28;;;;;;;13.97;6.07;;;;;;;17.97;100.00;101051.22;5067060;28;20044;-65
2023/09/01 09:07:12;;;;;;;11.40;5.75;;;;;;;17.99;100.00;101049.22;5070396;28;20127;-65
2023/09/01 09:09:54;;;;;;;10.00;5.45;;;;;;;17.97;100.00;101056.53;5067001;28;20053;-65
2023/09/01 09:12:23;;;;;;;10.20;6.55;;;;;;;17.91;100.00;101051.72;5066734;28;20048;-65
2023/09/01 09:14:54;;;;;;;11.07;6.65;;;;;;;18.04;100.00;101052.31;5066539;28;20043;-64
2023/09/01 09:17:40;;;;;;;11.57;7.30;;;;;;;18.01;100.00;101051.75;5067022;28;20068;-65
2023/09/01 09:20:10;;;;;;;12.55;6.60;;;;;;;18.01;100.00;101054.41;5067104;28;20499;-65
2023/09/01 09:22:51;;;;;;;10.68;6.82;;;;;;;18.08;100.00;101048.38;5065129;28;20037;-64
2023/09/01 09:25:28;;;;;;;11.98;7.70;;;;;;;18.05;100.00;101051.34;5067480;28;20700;-65
2023/09/01 09:27:57;;;;;;;11.95;7.05;;;;;;;18.13;100.00;101044.44;5063521;28;20102;-65
2023/09/01 09:30:26;;;;;;;13.00;6.28;;;;;;;18.13;100.00;101053.25;5066034;28;20075;-65
2023/09/01 09:33:04;;;;;;;12.73;7.15;;;;;;;18.15;100.00;101048.63;5063423;28;20041;-66
2023/09/01 09:35:34;;;;;;;11.57;7.00;;;;;;;18.05;100.00;101056.66;5063859;28;20049;-65
2023/09/01 09:38:04;;;;;;;12.35;7.18;;;;;;;18.08;100.00;101058.19;5064570;28;20052;-65
2023/09/01 09:40:32;;;;;;;12.55;6.95;;;;;;;18.15;100.00;101063.78;5066357;28;20456;-66
2023/09/01 09:43:00;;;;;;;11.70;6.53;;;;;;;18.02;100.00;101064.06;5066269;28;20036;-65
2023/09/01 09:45:32;;;;;;;12.25;7.18;;;;;;;18.03;100.00;101058.59;5070180;28;20131;-65
2023/09/01 09:48:03;;;;;;;12.27;7.35;;;;;;;17.97;100.00;101061.00;5070246;28;20102;-65
2023/09/01 09:50:34;;;;;;;11.10;6.82;;;;;;;17.98;100.00;101066.16;5070178;28;20435;-65
2023/09/01 09:53:04;;;;;;;12.18;6.78;;;;;;;17.99;100.00;101065.19;5048778;28;20610;-65
2023/09/01 09:55:34;;;;;;;10.98;6.55;;;;;;;17.99;100.00;101061.69;5052048;28;20049;-57
2023/09/01 09:58:06;;;;;;;11.63;6.60;;;;;;;18.03;100.00;101063.91;5053014;28;20048;-58
2023/09/01 10:00:40;;;;;;;10.20;6.47;;;;;;;18.12;100.00;101062.25;5062359;28;20049;-58
2023/09/01 10:03:10;;;;;;;10.73;6.47;;;;;;;18.11;100.00;101059.72;5071728;28;20426;-57
2023/09/01 10:05:39;;;;;;;12.05;6.80;;;;;;;18.00;100.00;101061.56;5070077;28;20114;-58
2023/09/01 10:08:11;;;;;;;11.82;7.47;;;;;;;17.79;100.00;101064.34;5070061;28;20048;-58
2023/09/01 10:10:41;;;;;;;9.63;7.68;;;;;;;17.71;100.00;101061.56;5071526;28;20049;-57
2023/09/01 10:13:10;;;;;;;13.90;8.30;;;;;;;17.51;100.00;101066.06;5071670;28;20036;-58
2023/09/01 10:15:39;;;;;;;12.90;8.13;;;;;;;17.60;100.00;101064.38;5071451;28;20105;-58
2023/09/01 10:18:11;;;;;;;12.18;8.25;;;;;;;17.55;100.00;101073.59;5071798;28;20044;-58
2023/09/01 10:20:43;;;;;;;13.70;8.45;;;;;;;17.58;100.00;101069.84;5071584;28;20048;-58
2023/09/01 10:23:13;;;;;;;11.20;8.48;;;;;;;17.50;100.00;101070.53;5070439;28;20045;-58
2023/09/01 10:26:13;;;;;;;11.50;8.63;;;;;;;17.48;100.00;101075.16;5071315;28;20124;-58
2023/09/01 10:28:54;;;;;;;11.55;7.85;;;;;;;17.55;100.00;101068.28;5071339;28;20063;-58
2023/09/01 10:31:23;;;;;;;12.48;8.05;;;;;;;17.43;100.00;101074.72;5070765;28;20044;-57
2023/09/01 10:34:28;;;;;;;14.57;7.70;;;;;;;17.44;100.00;101070.25;5070531;28;20450;-58
2023/09/01 10:37:30;;;;;;;9.70;7.75;;;;;;;17.28;100.00;101057.53;5027185;28;20088;-58
2023/09/01 10:39:59;;;;;;;11.40;8.33;;;;;;;17.21;100.00;101067.84;5071127;28;20525;-58
2023/09/01 10:42:43;;;;;;;11.13;7.60;;;;;;;17.22;100.00;101061.56;5071002;28;20803;-57
2023/09/01 10:45:13;;;;;;;10.35;7.45;;;;;;;17.28;100.00;101068.97;5068985;28;20062;-58
2023/09/01 10:47:52;;;;;;;10.68;6.95;;;;;;;17.29;100.00;101057.38;5069879;28;20044;-58
2023/09/01 10:50:22;;;;;;;11.18;6.80;;;;;;;17.31;100.00;101060.72;5070868;28;20049;-58
2023/09/01 10:53:26;;;;;;;12.13;7.32;;;;;;;17.34;100.00;101068.44;5069169;28;20485;-58
2023/09/01 10:56:11;;;;;;;11.35;7.93;;;;;;;17.35;100.00;101072.75;5059797;28;21081;-58
2023/09/01 10:58:45;;;;;;;9.18;6.88;;;;;;;17.43;100.00;101065.91;5070684;28;20044;-57
2023/09/01 11:01:31;;;;;;;8.50;6.43;;;;;;;17.50;100.00;101065.19;5071099;28;20052;-58
2023/09/01 11:04:33;;;;;;;11.02;7.03;;;;;;;17.49;100.00;101066.22;5071028;28;20068;-57
2023/09/01 11:07:08;;;;;;;10.65;7.97;;;;;;;17.43;100.00;101066.75;5070151;28;20052;-58
2023/09/01 11:09:49;;;;;;;;;;;;;;;17.51;100.00;101066.06;5071332;28;20483;-57
2023/09/01 11:12:18;;;;;;;9.18;7.35;;;;;;;17.45;100.00;101066.59;5071140;28;19920;-57
2023/09/01 11:14:58;;;;;;;9.75;7.18;;;;;;;17.46;100.00;101065.63;5070425;28;20475;-58
2023/09/01 11:17:38;;;;;;;11.73;7.18;;;;;;;17.52;100.00;101076.56;5070851;28;20080;-58
2023/09/01 11:20:09;;;;;;;11.82;7.75;;;;;;;17.55;100.00;101078.09;5070848;28;20053;-58
2023/09/01 11:22:43;;;;;;;10.10;7.22;;;;;;;17.54;100.00;101071.09;5069035;28;20119;-58
2023/09/01 11:25:16;;;;;;;9.80;7.55;;;;;;;17.52;100.00;101079.22;5071485;28;20041;-58